createdAt,value
2022-12-14T00:03:08.561Z,-2.50
2022-12-14T00:08:12.598Z,-2.58
2022-12-14T00:13:16.892Z,-2.60
2022-12-14T00:18:25.475Z,-2.64
2022-12-14T00:28:54.515Z,-2.61
2022-12-14T00:33:57.319Z,-2.70
2022-12-14T00:49:41.599Z,-2.72
2022-12-14T00:54:44.729Z,-2.82
2022-12-14T00:59:47.708Z,-2.87
2022-12-14T01:04:55.775Z,-2.90
2022-12-14T01:10:00.485Z,-2.94
2022-12-14T01:15:03.939Z,-2.97
2022-12-14T01:20:13.011Z,-3.02
2022-12-14T01:30:36.637Z,-3.01
2022-12-14T01:35:39.422Z,-3.12
2022-12-14T01:40:42.381Z,-3.16
2022-12-14T01:46:02.368Z,-3.18
2022-12-14T01:51:05.744Z,-3.21
2022-12-14T01:56:08.962Z,-3.24
2022-12-14T02:01:17.600Z,-3.28
2022-12-14T02:06:26.711Z,-3.31
2022-12-14T02:11:36.999Z,-3.35
2022-12-14T02:22:37.421Z,-3.34
2022-12-14T02:33:29.044Z,-3.38
2022-12-14T02:44:14.082Z,-3.41
2022-12-14T02:49:36.921Z,-3.51
2022-12-14T03:00:17.934Z,-3.44
2022-12-14T03:05:20.837Z,-3.50
2022-12-14T03:15:57.516Z,-3.43
2022-12-14T03:21:02.429Z,-3.51
2022-12-14T03:26:09.236Z,-3.55
2022-12-14T03:36:52.682Z,-3.51
2022-12-14T03:42:03.023Z,-3.59
2022-12-14T03:47:18.155Z,-3.61
2022-12-14T03:58:06.648Z,-3.57
2022-12-14T04:03:17.049Z,-3.65
2022-12-14T04:08:30.899Z,-3.69
2022-12-14T04:13:49.470Z,-3.73
2022-12-14T04:19:22.135Z,-3.70
2022-12-14T04:24:33.435Z,-3.82
2022-12-14T04:29:47.085Z,-3.85
2022-12-14T04:45:47.099Z,-3.90
2022-12-14T04:50:55.032Z,-3.94
2022-12-14T04:56:11.596Z,-3.96
2022-12-14T05:01:27.844Z,-3.98
2022-12-14T05:06:39.742Z,-3.98
2022-12-14T05:12:02.329Z,-4.03
2022-12-14T05:33:07.276Z,-4.06
2022-12-14T05:38:10.368Z,-4.14
2022-12-14T05:43:14.591Z,-4.16
2022-12-14T05:48:22.912Z,-4.17
2022-12-14T05:53:26.533Z,-4.17
2022-12-14T05:58:29.896Z,-4.20
2022-12-14T06:03:38.907Z,-4.20
2022-12-14T06:08:44.342Z,-4.24
2022-12-14T06:13:47.569Z,-4.24
2022-12-14T06:24:19.996Z,-4.25
2022-12-14T06:29:23.070Z,-4.37
2022-12-14T06:39:45.667Z,-4.35
2022-12-14T06:44:55.681Z,-4.45
2022-12-14T06:49:58.597Z,-4.49
2022-12-14T06:55:07.906Z,-4.52
2022-12-14T07:00:12.023Z,-4.54
2022-12-14T07:05:15.040Z,-4.56
2022-12-14T07:10:24.458Z,-4.56
2022-12-14T07:15:27.798Z,-4.56
2022-12-14T07:20:30.699Z,-4.58
2022-12-14T07:31:02.030Z,-4.54
2022-12-14T07:36:07.447Z,-4.60
2022-12-14T07:41:14.617Z,-4.62
2022-12-14T07:46:29.288Z,-4.63
2022-12-14T07:51:36.176Z,-4.64
2022-12-14T08:07:19.446Z,-4.59
2022-12-14T08:12:23.183Z,-4.65
2022-12-14T08:17:26.835Z,-4.63
2022-12-14T08:33:26.089Z,-4.38
2022-12-14T08:38:28.828Z,-4.34
2022-12-14T08:43:32.485Z,-4.21
2022-12-14T08:48:41.098Z,-4.07
2022-12-14T08:53:45.051Z,-3.88
2022-12-14T08:58:48.215Z,-3.71
2022-12-14T09:03:57.443Z,-3.54
2022-12-14T09:14:20.643Z,-3.11
2022-12-14T09:19:24.280Z,-2.98
2022-12-14T09:24:27.491Z,-2.81
2022-12-14T09:29:35.912Z,-2.63
2022-12-14T09:34:38.691Z,-2.47
2022-12-14T09:39:42.533Z,-2.23
2022-12-14T09:50:23.685Z,-1.53
2022-12-14T09:55:31.969Z,-0.53
2022-12-14T10:00:38.719Z,0.71
2022-12-14T10:06:03.084Z,1.51
2022-12-14T10:11:11.648Z,2.41
2022-12-14T10:16:26.207Z,3.21
2022-12-14T10:27:02.482Z,3.19
2022-12-14T10:32:18.786Z,3.33
2022-12-14T10:37:28.253Z,3.86
2022-12-14T10:48:18.352Z,4.51
2022-12-14T10:59:36.854Z,4.65
2022-12-14T11:04:50.335Z,3.68
2022-12-14T11:09:54.092Z,2.82
2022-12-14T11:15:06.778Z,2.17
2022-12-14T11:20:21.561Z,1.61
2022-12-14T11:31:01.446Z,0.78
2022-12-14T11:36:04.960Z,0.40
2022-12-14T11:46:45.009Z,-0.12
2022-12-14T11:52:00.921Z,-0.44
2022-12-14T11:57:07.997Z,-0.40
2022-12-14T12:02:24.918Z,0.01
2022-12-14T12:07:34.226Z,0.07
2022-12-14T12:12:37.154Z,0.01
2022-12-14T12:17:51.302Z,0.02
2022-12-14T12:23:01.281Z,-0.18
2022-12-14T12:28:13.726Z,-0.35
2022-12-14T12:33:39.220Z,-0.49
2022-12-14T12:44:49.824Z,-0.67
2022-12-14T12:49:53.555Z,-0.83
2022-12-14T12:55:01.722Z,-0.94
2022-12-14T13:05:49.381Z,-0.91
2022-12-14T13:11:24.402Z,-0.87
2022-12-14T13:21:49.869Z,-0.51
2022-12-14T13:32:42.876Z,-0.45
2022-12-14T13:38:04.140Z,-0.55
2022-12-14T13:43:29.135Z,-0.54
2022-12-14T13:48:40.998Z,-0.64
2022-12-14T13:53:48.553Z,-0.77
2022-12-14T13:58:55.809Z,-0.94
2022-12-14T14:04:26.967Z,-1.11
2022-12-14T14:09:58.812Z,-1.29
2022-12-14T14:15:21.290Z,-1.45
2022-12-14T14:20:57.135Z,-1.57
2022-12-14T14:26:20.955Z,-1.81
2022-12-14T14:31:43.704Z,-1.98
2022-12-14T14:36:53.522Z,-2.13
2022-12-14T14:41:58.494Z,-2.26
2022-12-14T14:47:07.327Z,-2.38
2022-12-14T14:53:02.433Z,-2.50
2022-12-14T14:58:22.410Z,-2.60
2022-12-14T15:08:58.341Z,-2.78
2022-12-14T15:19:28.305Z,-3.06
2022-12-14T15:24:44.310Z,-3.14
2022-12-14T15:35:17.376Z,-3.21
2022-12-14T15:40:22.994Z,-3.33
2022-12-14T15:50:59.748Z,-3.37
2022-12-14T16:07:01.721Z,-3.53
2022-12-14T16:12:15.136Z,-3.64
2022-12-14T16:22:43.406Z,-3.65
2022-12-14T16:27:49.736Z,-3.75
2022-12-14T16:33:04.418Z,-3.80
2022-12-14T16:43:39.944Z,-3.79
2022-12-14T16:54:24.102Z,-3.85
2022-12-14T16:59:31.236Z,-3.94
2022-12-14T17:04:38.209Z,-4.00
2022-12-14T17:09:46.742Z,-4.03
2022-12-14T17:14:50.416Z,-4.06
2022-12-14T17:19:53.436Z,-4.09
2022-12-14T17:25:01.827Z,-4.10
2022-12-14T17:30:05.582Z,-4.13
2022-12-14T17:35:12.339Z,-4.17
2022-12-14T17:45:41.301Z,-4.20
2022-12-14T17:50:47.517Z,-4.34
2022-12-14T18:01:18.500Z,-4.34
2022-12-14T18:06:22.099Z,-4.45
2022-12-14T18:11:26.327Z,-4.48
2022-12-14T18:21:54.554Z,-4.46
2022-12-14T18:26:57.380Z,-4.57
2022-12-14T18:32:00.313Z,-4.61
2022-12-14T18:53:07.177Z,-4.74
2022-12-14T19:03:32.286Z,-4.77
2022-12-14T19:08:37.140Z,-4.86
2022-12-14T19:13:48.180Z,-4.90
2022-12-14T19:18:58.273Z,-4.94
2022-12-14T19:45:18.334Z,-4.89
2022-12-14T19:50:21.353Z,-4.94
2022-12-14T20:00:44.847Z,-4.87
2022-12-14T20:05:53.608Z,-4.93
2022-12-14T20:10:57.167Z,-4.94
2022-12-14T20:21:32.816Z,-4.85
2022-12-14T20:26:36.202Z,-4.93
2022-12-14T20:31:39.026Z,-4.96
2022-12-14T20:36:53.580Z,-4.96
2022-12-14T20:41:56.888Z,-4.97
2022-12-14T20:47:00.419Z,-4.98
2022-12-14T20:52:08.723Z,-4.98
2022-12-14T20:57:11.440Z,-4.97
2022-12-14T21:07:51.012Z,-4.87
2022-12-14T21:12:53.780Z,-4.91
2022-12-14T21:17:57.741Z,-4.89
2022-12-14T21:28:32.237Z,-4.78
2022-12-14T21:33:37.758Z,-4.85
2022-12-14T21:38:42.878Z,-4.86
2022-12-14T21:49:10.419Z,-4.80
2022-12-14T21:54:16.797Z,-4.87
2022-12-14T21:59:26.896Z,-4.88
2022-12-14T22:04:39.703Z,-4.90
2022-12-14T22:09:43.200Z,-4.92
2022-12-14T22:20:07.227Z,-4.90
2022-12-14T22:25:10.355Z,-4.98
2022-12-14T22:30:14.621Z,-5.02
2022-12-14T22:35:22.998Z,-5.05
2022-12-14T22:40:27.938Z,-5.09
2022-12-14T22:45:30.918Z,-5.12
2022-12-14T22:56:17.202Z,-5.12
2022-12-14T23:01:21.934Z,-5.23
2022-12-14T23:06:25.255Z,-5.27
2022-12-14T23:11:34.002Z,-5.30
2022-12-14T23:16:44.605Z,-5.31
2022-12-14T23:21:54.195Z,-5.33
2022-12-14T23:27:09.051Z,-5.35
2022-12-14T23:32:13.536Z,-5.38
2022-12-14T23:37:20.729Z,-5.41
2022-12-14T23:42:30.031Z,-5.46
2022-12-14T23:47:33.078Z,-5.49
2022-12-14T23:52:41.661Z,-5.53
2022-12-14T23:57:50.934Z,-5.56
